Adventuress — WCX8691 — position and weather

sailwx.info

Track history (hours):
 
Tides and Currents Weather Stations Pressure Air Temp Water Temp Dewpoint Dewpoint Depression Visibility Wind Speed Wind Dir Waves Ship Positions

Adventuress (United States)

Ship's website: http://www.soundexp.org/

Owner: SOUND EXPERIENCE, PORT TOWNSEND, WA. More information available from US FCC via Universal Licensing System and Coast Guard Vessel Documentation Center.

Last reported at 2017-May-24 19:45 UTC. Time now 2017-May-28 16:34 UTC.
Position N 48°32' W 123°01'.

Type: Passenger vessel. MMSI: 367323180.

Date/timePositionNaut miles runAvg speedWind from/ knotsBaromVisibWave heightAir tempDewpointWater temp
2017-May-24 19:45N 48°32' W 123°01'1 1.0
2017-May-24 18:50N 48°33' W 122°60'1 1.4
2017-May-24 18:09N 48°33' W 122°58'0 1.0
2017-May-24 18:00N 48°33' W 122°58'2 0.1
2017-May-23 22:00N 48°33' W 123°01'1 1.3
2017-May-23 21:23N 48°33' W 122°60'1 0.2
2017-May-23 18:13N 48°33' W 123°00'0 0.0
2017-May-23 07:21N 48°32' W 123°01'1 1.5
2017-May-23 06:41N 48°33' W 122°60'2 6.8
2017-May-23 06:25N 48°32' W 122°57'  
Track history (hours):
 
Tides and Currents Weather Stations Pressure Air Temp Water Temp Dewpoint Dewpoint Depression Visibility Wind Speed Wind Dir Waves Ship Positions

Adventuress (United States)

Ship's website: http://www.soundexp.org/

Owner: SOUND EXPERIENCE, PORT TOWNSEND, WA. More information available from US FCC via Universal Licensing System and Coast Guard Vessel Documentation Center.

Last reported at 2017-May-24 19:45 UTC. Time now 2017-May-28 16:34 UTC.
Position N 48°32' W 123°01'.

Type: Passenger vessel. MMSI: 367323180.

Date/timePositionNaut miles runAvg speedWind from/ knotsBaromVisibWave heightAir tempDewpointWater temp
2017-May-24 19:45N 48°32' W 123°01'1 1.0
2017-May-24 18:50N 48°33' W 122°60'1 1.4
2017-May-24 18:09N 48°33' W 122°58'0 1.0
2017-May-24 18:00N 48°33' W 122°58'2 0.1
2017-May-23 22:00N 48°33' W 123°01'1 1.3
2017-May-23 21:23N 48°33' W 122°60'1 0.2
2017-May-23 18:13N 48°33' W 123°00'0 0.0
2017-May-23 07:21N 48°32' W 123°01'1 1.5
2017-May-23 06:41N 48°33' W 122°60'2 6.8
2017-May-23 06:25N 48°32' W 122°57'  

Dump ship's entire track history